createdAt,value
2023-03-16T00:06:30.916Z,0.60
2023-03-16T00:18:38.659Z,1.00
2023-03-16T00:30:31.839Z,0.22
2023-03-16T00:42:32.292Z,0.55
2023-03-16T00:54:32.735Z,0.14
2023-03-16T01:06:33.179Z,0.35
2023-03-16T01:18:33.626Z,0.32
2023-03-16T01:30:34.124Z,0.37
2023-03-16T01:42:37.233Z,0.49
2023-03-16T01:54:37.269Z,0.38
2023-03-16T02:06:35.458Z,0.35
2023-03-16T02:18:35.886Z,0.38
2023-03-16T02:30:44.111Z,0.12
2023-03-16T02:42:36.789Z,0.61
2023-03-16T02:54:37.238Z,0.00
2023-03-16T03:06:37.706Z,0.69
2023-03-16T03:18:38.153Z,1.10
2023-03-16T03:30:38.598Z,0.38
2023-03-16T03:42:41.826Z,0.25
2023-03-16T03:54:39.537Z,0.06
2023-03-16T04:06:40.065Z,0.25
2023-03-16T04:18:40.377Z,1.07
2023-03-16T04:30:40.915Z,0.32
2023-03-16T04:42:41.304Z,0.55
2023-03-16T04:54:41.803Z,0.43
2023-03-16T05:06:42.192Z,0.20
2023-03-16T05:18:42.692Z,0.45
2023-03-16T05:30:43.119Z,0.30
2023-03-16T05:42:43.558Z,0.06
2023-03-16T05:54:44.030Z,0.78
2023-03-16T06:06:44.466Z,0.55
2023-03-16T06:18:47.697Z,0.03
2023-03-16T06:30:45.382Z,0.55
2023-03-16T06:42:47.337Z,0.07
2023-03-16T06:54:46.292Z,0.13
2023-03-16T07:06:46.767Z,1.33
2023-03-16T07:18:47.180Z,2.10
2023-03-16T07:31:02.419Z,2.05
2023-03-16T07:42:48.156Z,1.34
2023-03-16T07:54:48.558Z,2.68
2023-03-16T08:06:48.958Z,1.73
2023-03-16T08:18:49.453Z,2.18
2023-03-16T08:30:49.946Z,4.25
2023-03-16T08:42:50.393Z,3.29
2023-03-16T08:55:02.325Z,5.03
2023-03-16T09:07:05.849Z,2.35
2023-03-16T09:18:51.674Z,1.32
2023-03-16T09:30:52.167Z,2.73
2023-03-16T09:42:52.710Z,4.25
2023-03-16T09:54:53.053Z,4.71
2023-03-16T10:06:53.506Z,5.21
2023-03-16T10:18:53.970Z,6.10
2023-03-16T10:30:54.420Z,4.75
2023-03-16T10:42:54.869Z,3.40
2023-03-16T10:54:55.370Z,3.66
2023-03-16T11:06:55.803Z,2.62
2023-03-16T11:18:56.221Z,3.71
2023-03-16T11:30:56.722Z,1.60
2023-03-16T11:42:57.155Z,3.90
2023-03-16T11:54:57.602Z,2.81
2023-03-16T12:06:58.048Z,3.38
2023-03-16T12:18:58.487Z,1.44
2023-03-16T12:31:01.669Z,1.78
2023-03-16T12:42:59.421Z,3.97
2023-03-16T12:55:02.058Z,2.18
2023-03-16T13:07:00.292Z,1.85
2023-03-16T13:19:00.785Z,2.39
2023-03-16T13:31:01.262Z,1.38
2023-03-16T13:43:01.659Z,3.07
2023-03-16T13:55:02.158Z,2.12
2023-03-16T14:07:02.598Z,3.10
2023-03-16T14:19:03.056Z,1.79
2023-03-16T14:31:03.549Z,1.87
2023-03-16T14:43:03.965Z,2.51
2023-03-16T14:55:04.430Z,1.87
2023-03-16T15:07:04.888Z,1.32
2023-03-16T15:19:05.333Z,1.62
2023-03-16T15:31:05.837Z,1.85
2023-03-16T15:43:06.244Z,1.95
2023-03-16T15:55:06.715Z,1.31
2023-03-16T16:07:07.153Z,1.58
2023-03-16T16:19:07.603Z,1.22
2023-03-16T16:31:08.045Z,0.94
2023-03-16T16:43:08.503Z,0.49
2023-03-16T16:55:08.961Z,0.56
2023-03-16T17:07:09.378Z,0.41
2023-03-16T17:19:09.903Z,0.00
2023-03-16T17:31:10.456Z,0.27
2023-03-16T17:43:10.804Z,0.12
2023-03-16T17:55:11.209Z,0.23
2023-03-16T18:07:11.675Z,0.06
2023-03-16T18:19:12.164Z,0.06
2023-03-16T18:31:12.614Z,0.18
2023-03-16T18:43:12.993Z,0.20
2023-03-16T18:55:13.472Z,0.00
2023-03-16T19:07:13.960Z,0.01
2023-03-16T19:19:14.481Z,0.05
2023-03-16T19:31:14.877Z,0.15
2023-03-16T19:43:15.301Z,0.00
2023-03-16T19:55:15.753Z,0.02
2023-03-16T20:07:16.193Z,0.57
2023-03-16T20:19:16.648Z,1.29
2023-03-16T20:31:19.768Z,0.51
2023-03-16T20:43:17.581Z,0.06
2023-03-16T20:55:18.162Z,0.07
2023-03-16T21:07:18.470Z,0.00
2023-03-16T21:19:18.905Z,0.00
2023-03-16T21:31:19.770Z,0.52
2023-03-16T21:43:19.779Z,1.19
2023-03-16T21:55:23.938Z,0.16
2023-03-16T22:07:20.702Z,0.46
2023-03-16T22:19:21.174Z,0.75
2023-03-16T22:31:21.686Z,0.22
2023-03-16T22:43:24.769Z,0.45
2023-03-16T22:55:22.542Z,1.47
2023-03-16T23:07:22.974Z,1.31
2023-03-16T23:19:24.776Z,0.08
2023-03-16T23:31:23.868Z,0.00
2023-03-16T23:43:24.341Z,0.00
2023-03-16T23:55:24.801Z,0.00
